Home > Products > Valid Products > TAF

000
FTUS44 KOHX 011858 AAA
TAFCSV
TAF AMD
KCSV 011858Z 0119/0218 30005KT 6SM BR BKN040
     FM012100 28005KT 3SM -TSRA BR OVC015CB
     FM012200 27006KT 4SM -SHRA BR OVC025
     FM020000 21005KT 6SM BR OVC025
     FM020800 25004KT 6SM BR VCTS OVC015CB=



000
FTUS44 KOHX 011820 AAA
TAFBNA
TAF AMD
KBNA 011820Z 0118/0218 26006KT 3SM RA BR OVC100
     FM012000 25005KT P6SM OVC100
     FM020000 23005KT P6SM OVC050
     FM020700 20006KT 6SM BR VCTS OVC025CB
     FM021000 21005KT 4SM -RA BR VCTS OVC015CB=



000
FTUS44 KOHX 011720
TAFCKV
TAF
KCKV 011720Z 0118/0218 24006KT 6SM -SHRA OVC050
     FM012300 20005KT P6SM OVC050
     FM020600 21006KT P6SM VCTS OVC025CB
     FM020900 20008KT 4SM -TSRA OVC007CB
     FM021500 24008KT 6SM -SHRA OVC015=



000
FTUS44 KOHX 011720
TAFCSV
TAF
KCSV 011720Z 0118/0218 26008KT P6SM BKN015 OVC025
     FM011830 27009KT 5SM -RA VCTS BKN020CB
     FM012100 20005KT 3SM -TSRA BR OVC015CB
     FM012200 21006KT 4SM -SHRA BR OVC025
     FM020000 21005KT 6SM BR OVC025
     FM020800 25004KT 6SM BR VCTS OVC015CB=



000
FTUS44 KOHX 011720
TAFCKV
TAF
KCKV 011720Z 0118/0218 24006KT 6SM -SHRA OVC050
     FM012300 20005KT P6SM OVC050
     FM020600 21006KT P6SM VCTS OVC025CB
     FM020900 20008KT 4SM -TSRA OVC007CB
     FM021500 24008KT 6SM -SHRA OVC015=



000
FTUS44 KOHX 011720
TAFBNA
TAF
KBNA 011720Z 0118/0218 29010G25KT 1SM TSRA BKN035CB OVC120
     FM011830 26006KT 6SM -SHRA BR OVC050
     FM020000 20005KT P6SM OVC050
     FM020700 20006KT 6SM BR VCTS OVC025CB
     FM021000 21005KT 4SM -RA BR VCTS OVC015CB=



000
FTUS44 KOHX 011720
TAFCSV
TAF
KCSV 011720Z 0118/0218 26008KT P6SM BKN015 OVC025
     FM011830 27009KT 5SM -RA VCTS BKN020CB
     FM012100 20005KT 3SM -TSRA BR OVC015CB
     FM012200 21006KT 4SM -SHRA BR OVC025
     FM020000 21005KT 6SM BR OVC025
     FM020800 25004KT 6SM BR VCTS OVC015CB=



000
FTUS44 KOHX 011720
TAFBNA
TAF
KBNA 011720Z 0118/0218 29010G25KT 1SM TSRA BKN035CB OVC120
     FM011830 26006KT 6SM -SHRA BR OVC050
     FM020000 20005KT P6SM OVC050
     FM020700 20006KT 6SM BR VCTS OVC025CB
     FM021000 21005KT 4SM -RA BR VCTS OVC015CB=



000
FTUS44 KOHX 011654 AAB
TAFCSV
TAF AMD
KCSV 011654Z 0117/0212 26008KT P6SM BKN015 OVC040
     FM011830 27009KT 5SM -SHRA VCTS BKN030CB
     FM020200 20005KT 3SM -TSRA BR OVC015CB
     FM020400 21006KT 4SM -SHRA BR VCTS OVC025CB=



000
FTUS44 KOHX 011653 AAB
TAFBNA
TAF AMD
KBNA 011653Z 0117/0212 25004KT 6SM -RA BR SCT090 SCT250
     FM011745 29010G25KT 1SM TSRA BKN035CB OVC120
     FM011830 26006KT 6SM -SHRA OVC050
     FM020000 20005KT P6SM OVC050
     FM020600 20006KT 6SM BR VCTS OVC050CB=



000
FTUS44 KOHX 011648 AAB
TAFCKV
TAF AMD
KCKV 011648Z 0117/0212 27006KT 6SM SHRA SCT080 OVC110
     FM011730 24006KT 6SM -SHRA OVC050
     FM012300 20005KT P6SM OVC050
     FM020500 19006KT P6SM VCTS OVC035CB=



000
FTUS44 KOHX 011648 AAB
TAFCKV
TAF AMD
KCKV 011648Z 0117/0212 27006KT 6SM SHRA SCT080 OVC110
     FM011730 24006KT 6SM -SHRA OVC050
     FM012300 20005KT P6SM OVC050
     FM020500 19006KT P6SM VCTS OVC035CB=



000
FTUS44 KOHX 011438 AAA
TAFCSV
TAF AMD
KCSV 011438Z 0115/0212 26008KT P6SM VCSH SCT035 OVC060
     FM011700 27009KT 5SM -SHRA VCTS BKN040CB
      TEMPO 0122/0202 3SM TSRA BR OVC035CB
     FM020200 20005KT 3SM -TSRA BR OVC015CB
     FM020400 21006KT 4SM -SHRA BR VCTS OVC025CB=



000
FTUS44 KOHX 011438 AAA
TAFCSV
TAF AMD
KCSV 011438Z 0115/0212 26008KT P6SM VCSH SCT035 OVC060
     FM011700 27009KT 5SM -SHRA VCTS BKN040CB
      TEMPO 0122/0202 3SM TSRA BR OVC035CB
     FM020200 20005KT 3SM -TSRA BR OVC015CB
     FM020400 21006KT 4SM -SHRA BR VCTS OVC025CB=



000
FTUS44 KOHX 011426 AAA
TAFCKV
TAF AMD
KCKV 011426Z 0114/0212 27005KT P6SM -SHRA BKN100 OVC120
     FM011530 27006KT 6SM SHRA VCTS OVC050CB
     FM011730 24006KT 6SM -SHRA OVC050
     FM020000 20005KT P6SM OVC050
     FM020500 19006KT P6SM VCTS OVC035CB=



000
FTUS44 KOHX 011416 AAA
TAFBNA
TAF AMD
KBNA 011416Z 0114/0212 23004KT P6SM VCSH SCT090 SCT250
      TEMPO 0116/0118 TSRA BKN035CB OVC120
     FM011800 26006KT 6SM -SHRA VCTS OVC050CB
     FM020000 20005KT P6SM OVC050
     FM020600 20006KT 6SM BR VCTS OVC050CB=



000
FTUS44 KOHX 011123
TAFCSV
TAF
KCSV 011123Z 0112/0212 24004KT 5SM BR VCSH BKN009 OVC015
     FM011400 25008KT P6SM VCSH BKN015 OVC050
     FM011700 27009KT 5SM -SHRA VCTS BKN030CB
      TEMPO 0122/0202 3SM TSRA BR OVC020CB
     FM020200 20005KT 3SM -TSRA BR OVC015CB
     FM020400 21006KT 4SM -SHRA BR VCTS OVC025CB=



000
FTUS44 KOHX 011123
TAFCKV
TAF
KCKV 011123Z 0112/0212 21004KT P6SM VCSH BKN040 OVC120
     FM011400 27007KT P6SM VCTS BKN040CB OVC120
     FM011700 23006KT 6SM -SHRA VCTS OVC040CB
      TEMPO 0118/0122 3SM TSRA BR OVC020CB
     FM020100 20005KT 6SM -SHRA VCTS OVC035CB=



000
FTUS44 KOHX 011123
TAFBNA
TAF
KBNA 011123Z 0112/0212 21004KT P6SM SCT250
     FM011500 27007KT P6SM VCTS BKN040CB OVC120
     FM011800 23006KT 6SM -SHRA VCTS OVC040CB
      TEMPO 0120/0124 3SM TSRA BR OVC020CB
     FM020100 20005KT 6SM -SHRA VCTS OVC035CB=



000
FTUS44 KOHX 011123
TAFCKV
TAF
KCKV 011123Z 0112/0212 21004KT P6SM VCSH BKN040 OVC120
     FM011400 27007KT P6SM VCTS BKN040CB OVC120
     FM011700 23006KT 6SM -SHRA VCTS OVC040CB
      TEMPO 0118/0122 3SM TSRA BR OVC020CB
     FM020100 20005KT 6SM -SHRA VCTS OVC035CB=



000
FTUS44 KOHX 011123
TAFCSV
TAF
KCSV 011123Z 0112/0212 24004KT 5SM BR VCSH BKN009 OVC015
     FM011400 25008KT P6SM VCSH BKN015 OVC050
     FM011700 27009KT 5SM -SHRA VCTS BKN030CB
      TEMPO 0122/0202 3SM TSRA BR OVC020CB
     FM020200 20005KT 3SM -TSRA BR OVC015CB
     FM020400 21006KT 4SM -SHRA BR VCTS OVC025CB=



000
FTUS44 KOHX 011123
TAFBNA
TAF
KBNA 011123Z 0112/0212 21004KT P6SM SCT250
     FM011500 27007KT P6SM VCTS BKN040CB OVC120
     FM011800 23006KT 6SM -SHRA VCTS OVC040CB
      TEMPO 0120/0124 3SM TSRA BR OVC020CB
     FM020100 20005KT 6SM -SHRA VCTS OVC035CB=



000
FTUS44 KOHX 011059 AAB
TAFCSV
TAF AMD
KCSV 011059Z 0111/0206 24004KT 5SM BR BKN009 OVC015
     FM011400 25008KT P6SM SCT040 BKN250
     FM011700 27009KT 5SM -SHRA VCTS BKN030CB
      TEMPO 0122/0202 3SM TSRA BR OVC020CB
     FM020200 20005KT 3SM -TSRA BR OVC015CB=



000
FTUS44 KOHX 010843 AAA
TAFCSV
TAF AMD
KCSV 010843Z 0109/0206 26011KT P6SM SCT007 BKN017 BKN027
     FM011300 25008KT P6SM SCT040 BKN250
     FM011700 27009KT 5SM -SHRA VCTS BKN030CB
      TEMPO 0122/0202 3SM TSRA BR OVC020CB
     FM020200 20005KT 3SM -TSRA BR OVC015CB=



000
FTUS44 KOHX 010520
TAFBNA
TAF
KBNA 010520Z 0106/0206 21004KT P6SM SCT250
     FM011500 27007KT P6SM VCTS BKN040CB BKN120
     FM011800 23006KT 6SM -SHRA VCTS BKN040CB
      TEMPO 0120/0124 3SM TSRA BR OVC020CB
     FM020100 20005KT 6SM -SHRA VCTS OVC035CB=



000
FTUS44 KOHX 010520
TAFCKV
TAF
KCKV 010520Z 0106/0206 21004KT P6SM SCT250
     FM011400 27007KT P6SM VCTS BKN040CB BKN120
     FM011700 23006KT 6SM -SHRA VCTS BKN040CB
      TEMPO 0118/0122 3SM TSRA BR OVC020CB
     FM020100 20005KT 6SM -SHRA VCTS OVC035CB=



000
FTUS44 KOHX 010520
TAFCKV
TAF
KCKV 010520Z 0106/0206 21004KT P6SM SCT250
     FM011400 27007KT P6SM VCTS BKN040CB BKN120
     FM011700 23006KT 6SM -SHRA VCTS BKN040CB
      TEMPO 0118/0122 3SM TSRA BR OVC020CB
     FM020100 20005KT 6SM -SHRA VCTS OVC035CB=



000
FTUS44 KOHX 010520
TAFCSV
TAF
KCSV 010520Z 0106/0206 25004KT P6SM VCSH SCT035 SCT250
     FM010800 25003KT 4SM BR BKN035
     FM011300 25008KT P6SM SCT040 BKN250
     FM011700 27009KT 5SM -SHRA VCTS BKN030CB
      TEMPO 0122/0202 3SM TSRA BR OVC020CB
     FM020200 20005KT 3SM -TSRA BR OVC015CB=



000
FTUS44 KOHX 010520
TAFCSV
TAF
KCSV 010520Z 0106/0206 25004KT P6SM VCSH SCT035 SCT250
     FM010800 25003KT 4SM BR BKN035
     FM011300 25008KT P6SM SCT040 BKN250
     FM011700 27009KT 5SM -SHRA VCTS BKN030CB
      TEMPO 0122/0202 3SM TSRA BR OVC020CB
     FM020200 20005KT 3SM -TSRA BR OVC015CB=



000
FTUS44 KOHX 010520
TAFBNA
TAF
KBNA 010520Z 0106/0206 21004KT P6SM SCT250
     FM011500 27007KT P6SM VCTS BKN040CB BKN120
     FM011800 23006KT 6SM -SHRA VCTS BKN040CB
      TEMPO 0120/0124 3SM TSRA BR OVC020CB
     FM020100 20005KT 6SM -SHRA VCTS OVC035CB=



000
FTUS44 KOHX 010501 AAB
TAFCSV
TAF AMD
KCSV 010501Z 0105/0124 24005KT P6SM SCT035
      TEMPO 0105/0106 3SM SHRA BR OVC030
     FM010600 25004KT P6SM SCT030
     FM010800 00000KT 4SM BR SCT250
     FM011200 22005KT P6SM SCT040 BKN250
     FM011800 27009KT P6SM VCTS BKN050CB=



000
FTUS44 KOHX 010501 AAB
TAFCSV
TAF AMD
KCSV 010501Z 0105/0124 24005KT P6SM SCT035
      TEMPO 0105/0106 3SM SHRA BR OVC030
     FM010600 25004KT P6SM SCT030
     FM010800 00000KT 4SM BR SCT250
     FM011200 22005KT P6SM SCT040 BKN250
     FM011800 27009KT P6SM VCTS BKN050CB=



000
FTUS44 KOHX 010446 AAA
TAFCSV
TAF AMD
KCSV 010446Z 0105/0124 24005KT P6SM VCTS BKN035CB
     FM010600 25004KT P6SM SCT030
     FM010800 00000KT 4SM BR SCT250
     FM011200 22005KT P6SM SCT040 BKN250
     FM011800 27009KT P6SM VCTS BKN050CB=



000
FTUS44 KOHX 302322
TAFCSV
TAF
KCSV 302322Z 0100/0124 24005KT P6SM SKC
     FM010100 VRB03KT P6SM SCT250
     FM010800 00000KT 4SM BR SCT250
     FM011200 22005KT P6SM SCT040 BKN250
     FM011800 27009KT P6SM VCTS BKN050CB=



000
FTUS44 KOHX 302322
TAFBNA
TAF
KBNA 302322Z 0100/0124 28007KT P6SM OVC250
     FM010100 VRB03KT P6SM SCT250
     FM011200 22005KT P6SM SCT050 BKN120
     FM011800 28008KT P6SM VCTS BKN050CB=



000
FTUS44 KOHX 302322
TAFCKV
TAF
KCKV 302322Z 0100/0124 27006KT P6SM SKC
     FM010100 VRB03KT P6SM SCT250
     FM010900 00000KT 4SM BR SCT250
     FM011200 23005KT P6SM SCT050 BKN120
     FM011800 27007KT P6SM VCTS BKN050CB=



000
FTUS44 KOHX 302038 AAB
TAFCSV
TAF AMD
KCSV 302038Z 3021/0118 26005KT P6SM VCSH SCT040 SCT100
     FM010100 VRB03KT P6SM SCT120
     FM010800 00000KT 4SM BR SCT250
     FM011200 22005KT P6SM SCT040 BKN250=



000
FTUS44 KOHX 302006 AAA
TAFBNA
TAF AMD
KBNA 302006Z 3020/0118 27006G13KT P6SM VCTS SCT050CB SCT120
     FM010100 VRB03KT P6SM SCT250
     FM011200 22005KT P6SM SCT050 BKN120=



000
FTUS44 KOHX 301819 AAA
TAFCSV
TAF AMD
KCSV 301819Z 3018/0118 26005KT P6SM VCTS SCT040CB BKN080
      TEMPO 3018/3021 VRB10G25KT 3SM -TSRA BKN025CB OVC050
     FM010100 VRB03KT P6SM SCT120
     FM010800 00000KT 4SM BR SCT250
     FM011200 22005KT P6SM SCT040 BKN250=



000
FTUS44 KOHX 301724
TAFCSV
TAF
KCSV 301724Z 3018/0118 26005KT P6SM VCTS SCT040CB BKN080
      TEMPO 3018/3021 3SM -TSRA BKN025CB OVC050
     FM010100 VRB03KT P6SM SCT120
     FM010800 00000KT 4SM BR SCT250
     FM011200 22005KT P6SM SCT040 BKN250=



000
FTUS44 KOHX 301724
TAFCKV
TAF
KCKV 301724Z 3018/0118 27006KT P6SM SCT250
     FM010100 VRB03KT P6SM SCT250
     FM010900 00000KT 4SM BR SCT250
     FM011200 23005KT P6SM SCT050 BKN120=



000
FTUS44 KOHX 301724
TAFBNA
TAF
KBNA 301724Z 3018/0118 25006KT P6SM VCTS SCT050CB SCT120
     FM302100 26006KT P6SM SCT250
     FM010100 VRB03KT P6SM SCT250
     FM011200 22005KT P6SM SCT050 BKN120=



000
FTUS44 KOHX 301601 AAC
TAFCSV
TAF AMD
KCSV 301601Z 3016/0112 23008KT P6SM SCT015 BKN040
     FM302000 26007KT P6SM VCTS SCT040CB BKN120
     FM010000 23003KT P6SM SCT120
     FM010800 00000KT 4SM BR SCT120=



000
FTUS44 KOHX 301458 AAB
TAFCSV
TAF AMD
KCSV 301458Z 3015/0112 23008KT P6SM SCT015 BKN040
      TEMPO 3015/3016 VRB06KT 5SM -TSRA BKN015CB
     FM302000 26007KT P6SM VCTS SCT040CB BKN120
     FM010000 23003KT P6SM SCT120
     FM010800 00000KT 4SM BR SCT120=



000
FTUS44 KOHX 301458 AAB
TAFCSV
TAF AMD
KCSV 301458Z 3015/0112 23008KT P6SM SCT015 BKN040
      TEMPO 3015/3016 VRB06KT 5SM -TSRA BKN015CB
     FM302000 26007KT P6SM VCTS SCT040CB BKN120
     FM010000 23003KT P6SM SCT120
     FM010800 00000KT 4SM BR SCT120=



000
FTUS44 KOHX 301401 AAA
TAFCSV
TAF AMD
KCSV 301401Z 3014/0112 22005KT P6SM BKN015
     FM301600 23008KT P6SM SCT025 BKN040
     FM302000 26007KT P6SM VCTS SCT040CB BKN120
     FM010000 23003KT P6SM SCT120
     FM010800 00000KT 4SM BR SCT120=



000
FTUS44 KOHX 301120
TAFCSV
TAF
KCSV 301120Z 3012/0112 22005KT P6SM SCT080
     FM302000 26007KT P6SM VCTS SCT040CB BKN120
     FM010000 23003KT P6SM SCT120
     FM010800 00000KT 4SM BR SCT120=



000
FTUS44 KOHX 301120
TAFBNA
TAF
KBNA 301120Z 3012/0112 21005KT P6SM SCT080
     FM301900 26007KT P6SM VCTS SCT040CB BKN120
     FM010100 21003KT P6SM SCT120=



000
FTUS44 KOHX 301120
TAFCKV
TAF
KCKV 301120Z 3012/0112 22005KT P6SM SCT080
     FM301800 26007KT P6SM VCTS SCT040CB BKN120
     FM010000 21003KT P6SM SCT120
     FM010900 00000KT 4SM BR SCT120=



000
FTUS44 KOHX 301120
TAFCKV
TAF
KCKV 301120Z 3012/0112 22005KT P6SM SCT080
     FM301800 26007KT P6SM VCTS SCT040CB BKN120
     FM010000 21003KT P6SM SCT120
     FM010900 00000KT 4SM BR SCT120=



000
FTUS44 KOHX 301120
TAFBNA
TAF
KBNA 301120Z 3012/0112 21005KT P6SM SCT080
     FM301900 26007KT P6SM VCTS SCT040CB BKN120
     FM010100 21003KT P6SM SCT120=



000
FTUS44 KOHX 301120
TAFCSV
TAF
KCSV 301120Z 3012/0112 22005KT P6SM SCT080
     FM302000 26007KT P6SM VCTS SCT040CB BKN120
     FM010000 23003KT P6SM SCT120
     FM010800 00000KT 4SM BR SCT120=



000
FTUS44 KOHX 300708 AAA
TAFCSV
TAF AMD
KCSV 300708Z 3007/0106 24006KT 3SM -TSRA BR BKN025CB OVC040
     FM300900 22003KT 4SM BR SCT040 BKN120
     FM301400 24005KT P6SM BKN120
     FM301800 25008KT P6SM VCTS SCT040CB BKN100 BKN200=



000
FTUS44 KOHX 300708 AAA
TAFCSV
TAF AMD
KCSV 300708Z 3007/0106 24006KT 3SM -TSRA BR BKN025CB OVC040
     FM300900 22003KT 4SM BR SCT040 BKN120
     FM301400 24005KT P6SM BKN120
     FM301800 25008KT P6SM VCTS SCT040CB BKN100 BKN200=



000
FTUS44 KOHX 300526
TAFCSV
TAF
KCSV 300526Z 3006/0106 24006KT 6SM -TSRA BKN025CB OVC040
     FM300700 22003KT 4SM BR SCT040 BKN120
     FM301400 24005KT P6SM BKN120
     FM301800 25008KT P6SM VCTS SCT040CB BKN100 BKN200=



000
FTUS44 KOHX 300526
TAFBNA
TAF
KBNA 300526Z 3006/0106 20003KT P6SM OVC120
     FM300900 00000KT 4SM BR SCT120
     FM301400 23005KT P6SM BKN120
     FM302000 27007KT P6SM VCTS SCT040CB BKN120 BKN250=



000
FTUS44 KOHX 300526
TAFCKV
TAF
KCKV 300526Z 3006/0106 22004KT P6SM VCTS SCT040CB
     FM300800 22003KT 4SM BR SCT120
     FM301400 26006KT P6SM BKN120
     FM302000 27007KT P6SM VCTS SCT040CB BKN120 BKN250=



000
FTUS44 KOHX 300526
TAFCKV
TAF
KCKV 300526Z 3006/0106 22004KT P6SM VCTS SCT040CB
     FM300800 22003KT 4SM BR SCT120
     FM301400 26006KT P6SM BKN120
     FM302000 27007KT P6SM VCTS SCT040CB BKN120 BKN250=



000
FTUS44 KOHX 300526
TAFBNA
TAF
KBNA 300526Z 3006/0106 20003KT P6SM OVC120
     FM300900 00000KT 4SM BR SCT120
     FM301400 23005KT P6SM BKN120
     FM302000 27007KT P6SM VCTS SCT040CB BKN120 BKN250=



000
FTUS44 KOHX 300526
TAFCSV
TAF
KCSV 300526Z 3006/0106 24006KT 6SM -TSRA BKN025CB OVC040
     FM300700 22003KT 4SM BR SCT040 BKN120
     FM301400 24005KT P6SM BKN120
     FM301800 25008KT P6SM VCTS SCT040CB BKN100 BKN200=



000
FTUS44 KOHX 300445 AAA
TAFCSV
TAF AMD
KCSV 300445Z 3005/3024 24006KT P6SM VCTS SCT040CB BKN060 BKN090
      TEMPO 3005/3006 VRB04KT 2SM TSRA BR BKN030CB OVC050
     FM300900 21003KT P6SM SCT040
     FM301800 25008KT P6SM VCTS SCT040CB BKN100 BKN200=



000
FTUS44 KOHX 300303 AAC
TAFBNA
TAF AMD
KBNA 300303Z 3003/3024 20005KT P6SM VCTS SCT040CB BKN250
     FM300400 23004KT P6SM SCT040
     FM302000 27007KT P6SM VCTS SCT040CB BKN120 BKN250=



000
FTUS44 KOHX 300303 AAC
TAFBNA
TAF AMD
KBNA 300303Z 3003/3024 20005KT P6SM VCTS SCT040CB BKN250
     FM300400 23004KT P6SM SCT040
     FM302000 27007KT P6SM VCTS SCT040CB BKN120 BKN250=



000
FTUS44 KOHX 300220 AAB
TAFBNA
TAF AMD
KBNA 300220Z 3002/3024 20005KT P6SM VCTS SCT040CB BKN250
      TEMPO 3002/3003 03015G25KT 1/2SM +TSRA FG SCT010 BKN030CB
      OVC040
     FM300300 23004KT P6SM SCT040
     FM302000 27007KT P6SM VCTS SCT040CB BKN120 BKN250=



000
FTUS44 KOHX 300220 AAB
TAFBNA
TAF AMD
KBNA 300220Z 3002/3024 20005KT P6SM VCTS SCT040CB BKN250
      TEMPO 3002/3003 03015G25KT 1/2SM +TSRA FG SCT010 BKN030CB
      OVC040
     FM300300 23004KT P6SM SCT040
     FM302000 27007KT P6SM VCTS SCT040CB BKN120 BKN250=



000
FTUS44 KOHX 300057 AAA
TAFBNA
TAF AMD
KBNA 300057Z 3001/3024 20005KT P6SM VCTS SCT040CB BKN250
     FM300300 23004KT P6SM SCT040
     FM302000 27007KT P6SM VCTS SCT040CB BKN120 BKN250=



000
FTUS44 KOHX 292340
TAFBNA
TAF
KBNA 292340Z 3000/3024 22012G20KT P6SM VCTS SCT040CB BKN250
     FM300300 23004KT P6SM SCT040
     FM302000 27007KT P6SM VCTS SCT040CB BKN120 BKN250=



000
FTUS44 KOHX 292340
TAFCKV
TAF
KCKV 292340Z 3000/3024 22004KT P6SM VCTS SCT040CB
     FM300200 25005KT P6SM SCT040
     FM302000 27007KT P6SM VCTS SCT040CB BKN120 BKN250=



000
FTUS44 KOHX 292340
TAFCSV
TAF
KCSV 292340Z 3000/3024 24006KT P6SM VCTS SCT040CB BKN060 BKN090
     FM300300 21003KT P6SM SCT040
     FM301800 25008KT P6SM VCTS SCT040CB BKN100 BKN200=



000
FTUS44 KOHX 292340
TAFCSV
TAF
KCSV 292340Z 3000/3024 24006KT P6SM VCTS SCT040CB BKN060 BKN090
     FM300300 21003KT P6SM SCT040
     FM301800 25008KT P6SM VCTS SCT040CB BKN100 BKN200=



000
FTUS44 KOHX 292340
TAFCKV
TAF
KCKV 292340Z 3000/3024 22004KT P6SM VCTS SCT040CB
     FM300200 25005KT P6SM SCT040
     FM302000 27007KT P6SM VCTS SCT040CB BKN120 BKN250=



000
FTUS44 KOHX 292340
TAFBNA
TAF
KBNA 292340Z 3000/3024 22012G20KT P6SM VCTS SCT040CB BKN250
     FM300300 23004KT P6SM SCT040
     FM302000 27007KT P6SM VCTS SCT040CB BKN120 BKN250=



000
FTUS44 KOHX 292246 AAB
TAFCKV
TAF AMD
KCKV 292246Z 2923/3018 26008KT P6SM VCTS BKN050CB
      TEMPO 2923/2924 2SM TSRA BR OVC030CB
     FM300100 23004KT P6SM VCSH BKN050
     FM300900 21004KT 5SM BR SCT060 BKN100
     FM301300 26006KT P6SM BKN040=



000
FTUS44 KOHX 292204 AAA
TAFCKV
TAF AMD
KCKV 292204Z 2922/3018 25012G18KT P6SM VCTS BKN050CB
      TEMPO 2922/2924 2SM TSRA BR OVC030CB
     FM300100 23004KT P6SM VCSH BKN050
     FM300900 21004KT 5SM BR SCT060 BKN100
     FM301300 26006KT P6SM BKN040=



000
FTUS44 KOHX 291723
TAFCKV
TAF
KCKV 291723Z 2918/3018 23013G19KT P6SM BKN050
     FM292100 25012G18KT P6SM VCTS BKN050CB
     FM300100 23004KT P6SM VCSH BKN050
     FM300900 21004KT 5SM BR SCT060 BKN100
     FM301300 26006KT P6SM BKN040=



000
FTUS44 KOHX 291723
TAFBNA
TAF
KBNA 291723Z 2918/3018 23013G20KT P6SM BKN060
     FM292100 24012G19KT P6SM VCTS BKN050CB
     FM300200 23005KT P6SM VCSH BKN050
     FM300900 21004KT 5SM BR SCT060 BKN100
     FM301300 24007KT P6SM BKN040=



000
FTUS44 KOHX 291723
TAFCSV
TAF
KCSV 291723Z 2918/3018 24013G19KT P6SM BKN040
     FM292000 25013G18KT P6SM VCTS BKN040CB
     FM300100 23004KT P6SM VCSH BKN040
     FM300800 23003KT 4SM BR SCT050 BKN100
     FM301300 24007KT P6SM BKN040=



000
FTUS44 KOHX 291120
TAFBNA
TAF
KBNA 291120Z 2912/3012 21007KT P6SM VCSH OVC090
     FM291400 23013G20KT P6SM BKN070
     FM292100 24012G19KT P6SM VCTS BKN050CB
     FM300100 23005KT P6SM SCT050=



000
FTUS44 KOHX 291120
TAFCKV
TAF
KCKV 291120Z 2912/3012 21009KT P6SM SCT050
     FM291400 23013G19KT P6SM SCT040
     FM292100 25012G18KT P6SM VCTS BKN050CB
     FM300000 24005KT P6SM SCT050=



000
FTUS44 KOHX 291120
TAFCSV
TAF
KCSV 291120Z 2912/3012 VRB04KT P6SM SCT050
     FM291400 23010KT P6SM VCSH BKN040
     FM291700 24013G19KT P6SM SCT040
     FM292000 25013G18KT P6SM VCTS SCT050CB
     FM300000 23004KT P6SM SCT050=



000
FTUS44 KOHX 290520
TAFBNA
TAF
KBNA 290520Z 2906/3006 17005KT P6SM SCT090
     FM290800 19007KT P6SM VCSH BKN040
     FM291100 20009KT P6SM BKN050
     FM291400 23013G20KT P6SM SCT050
     FM292200 24012G19KT P6SM VCTS BKN050CB
     FM300100 23005KT P6SM SCT050=



000
FTUS44 KOHX 290520
TAFCSV
TAF
KCSV 290520Z 2906/3006 00000KT P6SM SCT150
     FM291300 23011KT P6SM VCSH BKN040
     FM291700 24013G20KT P6SM SCT040
     FM292000 25013G20KT P6SM VCTS SCT050CB
     FM300000 22004KT P6SM SCT050=



000
FTUS44 KOHX 290520
TAFBNA
TAF
KBNA 290520Z 2906/3006 17005KT P6SM SCT090
     FM290800 19007KT P6SM VCSH BKN040
     FM291100 20009KT P6SM BKN050
     FM291400 23013G20KT P6SM SCT050
     FM292200 24012G19KT P6SM VCTS BKN050CB
     FM300100 23005KT P6SM SCT050=



000
FTUS44 KOHX 290520
TAFCSV
TAF
KCSV 290520Z 2906/3006 00000KT P6SM SCT150
     FM291300 23011KT P6SM VCSH BKN040
     FM291700 24013G20KT P6SM SCT040
     FM292000 25013G20KT P6SM VCTS SCT050CB
     FM300000 22004KT P6SM SCT050=



000
FTUS44 KOHX 290520
TAFCKV
TAF
KCKV 290520Z 2906/3006 18006KT P6SM SCT060
      TEMPO 2907/2909 -SHRA SCT025
     FM291300 24013G19KT P6SM SCT040
     FM292100 25012G18KT P6SM VCTS BKN050CB
     FM300000 23005KT P6SM SCT050=



000
FTUS44 KOHX 290520
TAFCKV
TAF
KCKV 290520Z 2906/3006 18006KT P6SM SCT060
      TEMPO 2907/2909 -SHRA SCT025
     FM291300 24013G19KT P6SM SCT040
     FM292100 25012G18KT P6SM VCTS BKN050CB
     FM300000 23005KT P6SM SCT050=



000
FTUS44 KOHX 282325
TAFCKV
TAF
KCKV 282325Z 2900/2924 19004KT P6SM SCT060
     FM291000 21008KT P6SM VCSH BKN040
     FM291300 24013G20KT P6SM SCT040=



000
FTUS44 KOHX 282325
TAFCSV
TAF
KCSV 282325Z 2900/2924 00000KT P6SM FEW100
     FM291500 23011G17KT P6SM VCSH BKN050
     FM291800 25013G20KT P6SM SCT040=



000
FTUS44 KOHX 282325
TAFBNA
TAF
KBNA 282325Z 2900/2924 20004KT P6SM SCT050
     FM291100 19007KT P6SM VCSH BKN040
     FM291400 23013G20KT P6SM SCT050=



    US Dept of Commerce
    National Oceanic and Atmospheric Administration
    National Weather Service
    1325 East West Highway
    Silver Spring, MD 20910
    Page Author: NWS Internet Services Team
Disclaimer
Information Quality
Credits
Glossary
Privacy Policy
Freedom of Information Act (FOIA)
About Us
Career Opportunities